Erick Pulgar

Olheiro-Chefe - Union Espanola
22 Fev 2028
Terça-feira
Processo

Personalidade

Adaptabilidade (12) Ambição (3) Controvérsia (4) Lealdade (3) Pressão (15) Profissionalismo (17) Espírito Esportivo (12) Temperamento (5)

Perfil

Estilo de Treinamento Democrático
Licença Continental B
Determinação 5
Gestão de Pessoas 11
Motivação 6
Disciplina 7
Satisfação no Trabalho
100%
Fadiga
0%
Função Olheiro-Chefe
Salário 51.5K p/s
Contrato 14.03.2029

Desempenho

Comportamento Bom
Eficácia do Treinamento
31%
Desenvolvimento do Jogador
35%
Prevenção de Lesões
60%
Implementação Tática
40%

Eventos Recentes

Participou de uma reunião de recrutamento agora
Participou de uma reunião de recrutamento 7d atrás
Recomendou um alvo de transferência 7d atrás
Participou de uma reunião de recrutamento 7d atrás
Participou de uma reunião de recrutamento 14d atrás
Recomendou um alvo de transferência 14d atrás
Participou de uma reunião de recrutamento 14d atrás
Participou de uma reunião de recrutamento 21d atrás

Monitorando agora

179
Jogador Clube Status Habilidade Confiança Observado Última observação Último voto
Manuel Rios La Equidad Ativo 110 / 109 40% 2 18.01.2028 -
Felipe Parra Envigado Ativo 131 / 132 40% 1 18.01.2028 -
Agustín Buffa Wanderers Ativo 90 / 95 40% 2 17.01.2028 -
Renzo Bacchia Racing Ativo 112 / 117 40% 1 17.01.2028 -
Mauro Casoli Talleres Ativo 102 / 106 40% 1 16.01.2028 -
Nahuel Suárez La Luz Ativo 105 / 117 40% 1 16.01.2028 -
Igor Nikić Mirandés Ativo 120 / 131 40% 1 15.01.2028 -
Cristopher Varela Deportivo La Guaira Ativo 116 / 119 40% 1 15.01.2028 -
Iván Arboleda Sarmiento Ativo 121 / 119 40% 2 13.01.2028 -
Luka Gavran Toronto FC Ativo 109 / 112 40% 1 13.01.2028 -
Joaquín Bigo Tristán Suárez Ativo 99 / 110 40% 2 11.01.2028 -
Manuel Roffo Cerro Porteno Ativo 140 / 134 40% 2 11.01.2028 -
Nahuel Pezzini Arsenal Ativo 115 / 110 40% 2 10.01.2028 -
Patrick Schulte Columbus Crew Ativo 121 / 120 40% 2 08.01.2028 -
Esteban Glellel Quilmes Ativo 115 / 116 40% 1 08.01.2028 -
Victor Aznar Cádiz Ativo 136 / 139 40% 1 07.01.2028 Mais informações
Emmanuel Gómez Riga Alvarado Ativo 115 / 117 40% 1 07.01.2028 -
Facundo Vila Estudiantes Ativo 102 / 113 40% 1 06.01.2028 -
Emiliano González Almagro Ativo 129 / 122 40% 1 06.01.2028 -
Lucas Bruera Carabobo Ativo 134 / 124 40% 1 05.01.2028 -
Mauro Silveira Junior Ativo 137 / 123 40% 1 05.01.2028 -
José Ortiz Atletico Bucaramanga Ativo 127 / 118 40% 2 13.12.2027 -
Jan Carlos Ángulo Deportes Tolima Ativo 132 / 117 40% 2 13.12.2027 -
Ethan Pye Stockport County Ativo 104 / 117 40% 1 06.07.2027 -
Ross McCrorie Bristol City Ativo 114 / 131 40% 1 06.07.2027 -
Leandro Hernández Colo-Colo Ativo 101 / 90 51% 1 21.06.2027 -
Dion Beljo Standard Liege Negociando 131 / 132 66% 1 01.06.2027 Aprovar
Callum O'Hare Sheffield United Ativo 132 / 133 40% 3 31.05.2027 -
Malik Mothersille Stockport County Ativo 95 / 120 40% 1 31.05.2027 -
Cameron Archer Southampton Ativo 140 / 133 40% 2 30.05.2027 -
Bernat Guiu Virtus Entella Ativo 110 / 110 40% 1 30.05.2027 -
Petar Musa Adana Demirspor Ativo 136 / 136 40% 4 29.05.2027 -
Carlton Morris Derby County Ativo 108 / 119 40% 2 28.05.2027 -
Patson Daka Leicester City Ativo 108 / 129 40% 3 28.05.2027 -
Luis Vázquez Birmingham Ativo 115 / 123 40% 4 26.05.2027 -
Richard Koné Queens Park Rangers Ativo 122 / 130 40% 2 26.05.2027 -
Morgan Whittaker Middlesbrough Ativo 144 / 134 40% 4 25.05.2027 -
Niall Ennis Blackpool Ativo 124 / 119 40% 4 24.05.2027 -
Iwan Morgan Grimsby Town Ativo 115 / 113 40% 3 24.05.2027 -
Will Lankshear Middlesbrough Ativo 114 / 132 40% 6 23.05.2027 -
Harry Leonard Peterborough United Ativo 93 / 112 40% 2 23.05.2027 -
Robert Mizo Ashanti Gold Ativo 96 / 104 40% 2 19.05.2027 -
Tom Cannon Sheffield United Ativo 140 / 137 40% 6 18.05.2027 -
Zian Flemming Ipswich Town Ativo 119 / 136 40% 5 17.05.2027 -
Tommy Conway Middlesbrough Ativo 115 / 137 40% 1 15.05.2027 -
Oli McBurnie Hull City Ativo 151 / 135 40% 4 14.05.2027 -
Yousef Salech Cardiff City Ativo 114 / 128 40% 3 13.05.2027 -
Stephen Humphrys Bradford City Ativo 102 / 103 40% 2 10.05.2027 -
Bojan Radulović Huddersfield Town Ativo 132 / 111 40% 3 08.05.2027 -
Lorent Tolaj Plymouth Argyle Ativo 119 / 119 40% 2 05.05.2027 -
Themba Ngcobo SuperSport United Ativo 102 / 106 40% 10 03.05.2027 -
Aaron Collins Milton Keynes Dons Ativo 101 / 114 40% 3 03.05.2027 -
Mees Rijks Bristol Rovers Ativo 131 / 119 40% 2 02.05.2027 -
Dom Ballard Leyton Orient Ativo 132 / 125 40% 4 30.04.2027 -
Ronan Hale Gillingham Ativo 100 / 116 40% 4 29.04.2027 -
Aaron Drinan Swindon Town Ativo 89 / 94 40% 1 27.04.2027 -
Elijah Adebayo Luton Town Ativo 106 / 119 40% 3 26.04.2027 -
Ilyas Ansah Hull City Ativo 132 / 125 40% 2 23.04.2027 -
Bertrand Traoré Sunderland Ativo 140 / 125 40% 1 19.04.2027 -
Moussa Dembélé CR Belouizdad Ativo 151 / 138 40% 4 18.04.2027 -
Joe Gelhardt Hull City Ativo 117 / 132 40% 3 16.04.2027 -
Kyle Wootton Stockport County Ativo 122 / 126 40% 2 15.04.2027 -
Tyrese Campbell Sheffield United Ativo 122 / 130 40% 2 14.04.2027 -
Tyreece Campbell Charlton Athletic Ativo 135 / 116 40% 4 13.04.2027 -
Ross Stewart Southampton Ativo 132 / 126 40% 2 06.04.2027 -
Fortune Bassey Djoliba Ativo 107 / 104 40% 1 05.04.2027 -
Romelu Castagne KV Oostende Ativo 144 / 141 40% 2 04.04.2027 -
Victor Adeboyejo Ismaily Ativo 125 / 100 40% 3 03.04.2027 -
Alassana Jatta Notts County Ativo 99 / 109 40% 1 01.04.2027 -
Harry Cornick AFC Wimbledon Ativo 100 / 95 40% 2 21.03.2027 -
Aune Heggebø West Bromwich Albion Ativo 132 / 127 40% 2 17.03.2027 -
Mandla Mahlangu Ajax Cape Town Ativo 90 / 103 40% 3 15.03.2027 -
Hany Mukhtar Spezia Ativo 120 / 137 40% 1 12.03.2027 -
Dávid Strelec Middlesbrough Ativo 156 / 141 40% 1 11.03.2027 -
Lewis Morgan SuperSport United Ativo 127 / 133 40% 10 09.03.2027 -
Evidence Makgopa Orlando Pirates Ativo 114 / 121 40% 2 08.03.2027 -
Adolfo Muñoz Ruch Ativo 126 / 120 40% 3 04.03.2027 -
Oleksii Hutsuliak Polissia Ativo 142 / 116 40% 1 23.02.2027 -
Tomás González Piast Ativo 114 / 120 40% 2 21.02.2027 -
Josh Koroma Leyton Orient Ativo 90 / 105 40% 1 14.02.2027 -
Erik Prekop Gornik Zabrze Ativo 112 / 120 40% 1 09.02.2027 -
Job Ochieng Real Sociedad Ativo 86 / 115 40% 1 06.02.2027 -
Danyil Alefirenko Chornomorets Ativo 110 / 102 40% 1 05.02.2027 -
Robert Murić Floriana Ativo 100 / 103 40% 1 01.02.2027 -
Sam Nombe Milton Keynes Dons Ativo 97 / 109 40% 1 29.01.2027 -
David Barbona Defensa y Justicia Ativo 133 / 126 40% 4 26.01.2027 -
Chinedu Geoffrey Krylya Sovetov Ativo 108 / 104 40% 1 23.01.2027 -
José Martínes CSKA 1948 Ativo 107 / 106 40% 1 23.01.2027 -
Pablo Rodríguez Lech Ativo 113 / 116 40% 2 22.01.2027 -
Brayan León Mamelodi Sundowns Ativo 104 / 112 40% 2 20.01.2027 -
Nicolás Contín MFK Ruzomberok Ativo 110 / 118 40% 1 07.01.2027 -
Lucas Souto Defensa y Justicia Ativo 114 / 130 40% 2 21.12.2026 -
Damián Fernández Defensa y Justicia Ativo 119 / 132 40% 2 02.12.2026 -
Sondre Tronstad Blackburn Rovers Ativo 132 / 130 40% 1 30.11.2026 -
Jonás Luna Santa Clara Ativo 100 / 124 40% 4 28.11.2026 -
Alexey Miranchuk St. Gallen Ativo 135 / 141 40% 3 27.11.2026 -
Michael Zetterer Leeds United Ativo 156 / 138 40% 2 27.11.2026 -
Santiago Rodríguez Gimnasia y Esgrima Ativo 130 / 124 40% 2 26.11.2026 -
Jonás Acevedo Instituto Ativo 131 / 123 40% 2 23.11.2026 -
Luca Martínez Dupuy Godoy Cruz Ativo 115 / 126 40% 2 19.11.2026 -
Lucas Carrizo Plaza Colonia Ativo 101 / 115 40% 1 19.11.2026 -
Lucas Varaldo Central Córdoba SdE Ativo 110 / 118 40% 1 18.11.2026 -
Tomás Molina Argentinos Juniors Ativo 121 / 126 40% 2 17.11.2026 -
Nicolás Cordero Aldosivi Ativo 128 / 113 40% 2 16.11.2026 -
Marcelo Torres Gimnasia La Plata Ativo 115 / 115 40% 1 16.11.2026 -
Renato Solís Sporting Cristal Ativo 112 / 125 40% 1 16.11.2026 -
Antony Alonso Deportivo Riestra Ativo 118 / 115 40% 1 14.11.2026 -
Nicolás Fernández Sassuolo Ativo 137 / 121 40% 1 14.11.2026 -
Luca Franco Arsenal Ativo 96 / 114 40% 1 13.11.2026 -
Luis Ingolotti Atlético Tucumán Ativo 120 / 123 40% 1 13.11.2026 Mais informações
Santiago Roggero Gimnasia y Esgrima Ativo 113 / 103 40% 1 13.11.2026 -
Rodrigo Bogarín Barracas Central Ativo 119 / 117 40% 1 11.11.2026 -
Hansel Zapata Botev Plovdiv Ativo 105 / 119 40% 1 10.11.2026 -
Agustín Módica Gimnasia y Esgrima Ativo 112 / 115 40% 3 09.11.2026 -
Yeison Moreno Hajduk Split Ativo 104 / 110 40% 1 08.11.2026 -
Siro Rosané Estudiantes Ativo 112 / 112 40% 2 07.11.2026 -
Alexander Díaz Deportivo Riestra Ativo 129 / 114 40% 5 07.11.2026 -
Andreas Hansen FC Nordsjaelland Ativo 137 / 113 40% 1 07.11.2026 Mais informações
Facundo Miño Deportivo Riestra Ativo 109 / 118 40% 1 07.11.2026 -
Sipho Chaine Orlando Pirates Ativo 135 / 110 40% 1 05.11.2026 Mais informações
Bamba Dieng Crvena Zvezda Ativo 132 / 130 40% 1 01.11.2026 -
Agustín Gallo Tristán Suárez Ativo 121 / 111 40% 1 28.10.2026 -
Laureano Martínez Talleres Ativo 108 / 103 40% 1 25.10.2026 -
Ignacio Chicco Aldosivi Ativo 127 / 119 40% 1 18.10.2026 -
Mauro Valiente Estudiantes Ativo 104 / 106 40% 1 16.10.2026 -
Rubén Duarte Legia Ativo 140 / 138 40% 2 15.10.2026 -
Misael Sosa Godoy Cruz Ativo 104 / 118 40% 1 10.10.2026 -
Rafael Navarro St. Louis CITY SC Ativo 110 / 131 40% 1 08.10.2026 -
José Florentín Independiente Rivadavia Ativo 126 / 119 40% 1 07.10.2026 -
Lautaro Petruchi Gimnasia y Esgrima Ativo 110 / 114 40% 1 06.10.2026 -
Matías Tagliamonte Racing Club Ativo 122 / 120 40% 1 06.10.2026 -
Tomás Chancalay Minnesota United FC Ativo 122 / 125 40% 2 01.10.2026 -
Marcus Bundgaard SonderjyskE Ativo 113 / 105 40% 1 01.10.2026 -
Drake Callender Minnesota United FC Ativo 110 / 111 40% 2 28.09.2026 -
Miguel Silva Carabobo Ativo 101 / 108 40% 1 28.09.2026 -
Maximiliano Rodríguez Huachipato Ativo 103 / 121 40% 1 27.09.2026 -
Sead Hakšabanović Malmo FF Ativo 125 / 118 40% 2 25.09.2026 -
Vojtěch Vorel Mlada Boleslav Ativo 124 / 113 40% 1 25.09.2026 -
CJ dos Santos San Diego Football Club Ativo 96 / 101 40% 1 23.09.2026 -
Santiago Silva CFR Cluj Ativo 115 / 123 40% 2 22.09.2026 Mais informações
Filip Marschall Stevenage Ativo 107 / 108 40% 1 22.09.2026 -
Timo Werner San Jose Earthquakes Ativo 147 / 130 40% 1 18.09.2026 -
Rodin Quiñónes Charlotte Football Club Ativo 93 / 105 40% 1 18.09.2026 -
Richard Celis Zamora Ativo 101 / 102 40% 3 17.09.2026 -
Victor Olatunji Real Salt Lake Ativo 111 / 119 40% 2 17.09.2026 -
Roman Celentano FC Cincinnati Ativo 126 / 117 40% 1 17.09.2026 -
Miguel Vargas Universitario Ativo 102 / 121 40% 1 16.09.2026 -
Sam Surridge Nashville SC Ativo 146 / 128 40% 1 12.09.2026 -
Theo Corbeanu Toronto FC Ativo 116 / 123 40% 1 12.09.2026 -
Tadeo Allende Inter Miami CF Ativo 107 / 126 40% 1 10.09.2026 -
Jonatan Torres Cerro Porteno Ativo 133 / 120 40% 1 09.09.2026 -
Juan Escobar Melgar Ativo 127 / 124 40% 1 09.09.2026 -
Ulises Rivas DC United Ativo 113 / 113 40% 1 09.09.2026 -
Christian Larotonda Caracas Ativo 125 / 114 40% 2 08.09.2026 -
Delvin Alfonzo Deportivo Tachira Ativo 121 / 115 40% 1 08.09.2026 -
Agustín Venezia Iquique Ativo 120 / 111 40% 1 07.09.2026 Mais informações
Ray Sandoval Cienciano Ativo 109 / 106 40% 1 04.09.2026 -
Cheikh Sabaly Vancouver Whitecaps Ativo 137 / 115 40% 1 30.08.2026 -
Cristian Núñez Huracán Ativo 107 / 109 40% 1 27.08.2026 -
Luis Ramos Alianza Lima Ativo 122 / 112 40% 1 24.08.2026 -
Dejan Joveljić Seattle Sounders Ativo 115 / 136 40% 1 22.08.2026 -
Ramiro Ruiz Rodríguez Atlético Tucumán Ativo 115 / 114 40% 1 21.08.2026 -
Myrto Uzuni Austin FC Ativo 121 / 127 40% 1 20.08.2026 -
Nahuel Luján Sport Huancayo Ativo 114 / 115 40% 1 16.08.2026 -
Marcelo Fernández Libertad Ativo 100 / 120 40% 2 15.08.2026 -
Italo Regalado Cesar Vallejo Ativo 97 / 101 40% 1 12.08.2026 -
Claudio Villagra Volos NPS Ativo 94 / 104 40% 1 12.08.2026 -
Eryc Castillo Alianza Lima Ativo 126 / 114 40% 1 11.08.2026 -
Genaro Rossi San Martín SJ Ativo 117 / 103 40% 1 09.08.2026 -
Juan Fernando Alfaro Olimpia Ativo 123 / 107 40% 1 07.08.2026 -
Juan Romero Olimpia Ativo 101 / 108 40% 1 07.08.2026 -
Jonathan Cañete Portuguesa Ativo 114 / 115 40% 1 06.08.2026 -
Breel Embolo Atlanta United FC Ativo 146 / 137 40% 1 06.08.2026 -
Luis Gonzalez Atletico Venezuela Ativo 109 / 108 40% 1 03.08.2026 -
Darío Cáceres Defensa y Justicia Ativo 117 / 111 40% 1 03.08.2026 -
Iván Tapia Barracas Central Ativo 117 / 117 40% 1 02.08.2026 -
Cristian Calderón Pumas UNAM Ativo 140 / 117 40% 1 02.08.2026 -
Franco Pizzichillo Montevideo City Torque Ativo 118 / 117 40% 1 01.08.2026 -
Ander Guevara Alavés Ativo 136 / 129 40% 1 01.08.2026 -